sensor_id;sensor_type;location;lat;lon;timestamp;temperature;humidity
10903;DHT22;5504;47.312;11.060;2023-02-16T00:01:50;1.80;73.50
10903;DHT22;5504;47.312;11.060;2023-02-16T00:04:25;1.70;73.60
10903;DHT22;5504;47.312;11.060;2023-02-16T00:06:51;1.60;73.70
10903;DHT22;5504;47.312;11.060;2023-02-16T00:09:18;1.50;74.20
10903;DHT22;5504;47.312;11.060;2023-02-16T00:11:44;1.50;74.70
10903;DHT22;5504;47.312;11.060;2023-02-16T00:14:29;1.70;74.00
10903;DHT22;5504;47.312;11.060;2023-02-16T00:16:57;2.00;73.00
10903;DHT22;5504;47.312;11.060;2023-02-16T00:19:33;1.90;72.40
10903;DHT22;5504;47.312;11.060;2023-02-16T00:21:59;1.90;72.40
10903;DHT22;5504;47.312;11.060;2023-02-16T00:24:27;1.80;72.40
10903;DHT22;5504;47.312;11.060;2023-02-16T00:26:53;1.80;73.20
10903;DHT22;5504;47.312;11.060;2023-02-16T00:29:27;1.60;73.80
10903;DHT22;5504;47.312;11.060;2023-02-16T00:31:55;1.50;74.30
10903;DHT22;5504;47.312;11.060;2023-02-16T00:34:28;1.50;74.50
10903;DHT22;5504;47.312;11.060;2023-02-16T00:36:55;1.50;74.50
10903;DHT22;5504;47.312;11.060;2023-02-16T00:39:22;1.60;74.50
10903;DHT22;5504;47.312;11.060;2023-02-16T00:42:35;1.80;73.90
10903;DHT22;5504;47.312;11.060;2023-02-16T00:44:40;1.90;73.00
10903;DHT22;5504;47.312;11.060;2023-02-16T00:49:45;1.70;72.80
10903;DHT22;5504;47.312;11.060;2023-02-16T00:52:32;1.60;73.30
10903;DHT22;5504;47.312;11.060;2023-02-16T00:55:00;1.60;73.70
10903;DHT22;5504;47.312;11.060;2023-02-16T00:57:28;1.60;73.30
10903;DHT22;5504;47.312;11.060;2023-02-16T01:00:15;1.60;73.90
10903;DHT22;5504;47.312;11.060;2023-02-16T01:02:43;1.60;73.90
10903;DHT22;5504;47.312;11.060;2023-02-16T01:05:09;1.70;73.50
10903;DHT22;5504;47.312;11.060;2023-02-16T01:07:35;1.70;73.10
10903;DHT22;5504;47.312;11.060;2023-02-16T01:10:19;1.70;73.20
10903;DHT22;5504;47.312;11.060;2023-02-16T01:13:04;1.50;73.60
10903;DHT22;5504;47.312;11.060;2023-02-16T01:15:30;1.50;74.00
10903;DHT22;5504;47.312;11.060;2023-02-16T01:17:56;1.50;74.30
10903;DHT22;5504;47.312;11.060;2023-02-16T01:20:24;1.50;74.50
10903;DHT22;5504;47.312;11.060;2023-02-16T01:22:51;1.60;73.90
10903;DHT22;5504;47.312;11.060;2023-02-16T01:25:17;1.70;73.60
10903;DHT22;5504;47.312;11.060;2023-02-16T01:27:43;1.40;74.00
10903;DHT22;5504;47.312;11.060;2023-02-16T01:32:43;1.40;74.80
10903;DHT22;5504;47.312;11.060;2023-02-16T01:35:23;1.40;74.40
10903;DHT22;5504;47.312;11.060;2023-02-16T01:37:52;1.30;74.50
10903;DHT22;5504;47.312;11.060;2023-02-16T01:43:15;1.20;75.00
10903;DHT22;5504;47.312;11.060;2023-02-16T01:45:47;1.10;75.80
10903;DHT22;5504;47.312;11.060;2023-02-16T01:48:25;1.10;75.60
10903;DHT22;5504;47.312;11.060;2023-02-16T01:51:20;1.10;75.50
10903;DHT22;5504;47.312;11.060;2023-02-16T01:53:54;1.20;75.70
10903;DHT22;5504;47.312;11.060;2023-02-16T01:59:14;1.20;74.90
10903;DHT22;5504;47.312;11.060;2023-02-16T02:01:53;1.40;74.90
10903;DHT22;5504;47.312;11.060;2023-02-16T02:04:25;1.40;74.30
10903;DHT22;5504;47.312;11.060;2023-02-16T02:07:21;1.30;74.40
10903;DHT22;5504;47.312;11.060;2023-02-16T02:10:00;1.10;75.40
10903;DHT22;5504;47.312;11.060;2023-02-16T02:12:38;1.30;75.20
10903;DHT22;5504;47.312;11.060;2023-02-16T02:15:05;1.40;74.70
10903;DHT22;5504;47.312;11.060;2023-02-16T02:17:33;1.20;74.70
10903;DHT22;5504;47.312;11.060;2023-02-16T02:31:49;0.70;77.10
10903;DHT22;5504;47.312;11.060;2023-02-16T02:39:33;1.00;76.30
10903;DHT22;5504;47.312;11.060;2023-02-16T02:44:52;0.90;76.00
10903;DHT22;5504;47.312;11.060;2023-02-16T02:47:18;1.00;76.00
10903;DHT22;5504;47.312;11.060;2023-02-16T02:49:52;0.90;76.10
10903;DHT22;5504;47.312;11.060;2023-02-16T02:52:19;0.90;76.40
10903;DHT22;5504;47.312;11.060;2023-02-16T02:54:45;0.80;76.40
10903;DHT22;5504;47.312;11.060;2023-02-16T02:57:41;1.00;76.80
10903;DHT22;5504;47.312;11.060;2023-02-16T03:00:35;1.10;75.90
10903;DHT22;5504;47.312;11.060;2023-02-16T03:03:31;1.30;75.20
10903;DHT22;5504;47.312;11.060;2023-02-16T03:06:08;1.20;74.90
10903;DHT22;5504;47.312;11.060;2023-02-16T03:08:38;0.90;75.00
10903;DHT22;5504;47.312;11.060;2023-02-16T03:11:12;0.70;76.00
10903;DHT22;5504;47.312;11.060;2023-02-16T03:17:00;0.70;77.10
10903;DHT22;5504;47.312;11.060;2023-02-16T03:19:44;0.80;76.70
10903;DHT22;5504;47.312;11.060;2023-02-16T03:22:29;0.60;76.80
10903;DHT22;5504;47.312;11.060;2023-02-16T03:25:14;0.80;76.70
10903;DHT22;5504;47.312;11.060;2023-02-16T03:28:01;0.80;75.90
10903;DHT22;5504;47.312;11.060;2023-02-16T03:30:46;0.50;76.90
10903;DHT22;5504;47.312;11.060;2023-02-16T03:33:13;0.50;77.60
10903;DHT22;5504;47.312;11.060;2023-02-16T03:35:39;0.60;77.80
10903;DHT22;5504;47.312;11.060;2023-02-16T03:38:05;0.60;77.80
10903;DHT22;5504;47.312;11.060;2023-02-16T03:40:32;0.50;77.60
10903;DHT22;5504;47.312;11.060;2023-02-16T03:43:04;0.40;77.80
10903;DHT22;5504;47.312;11.060;2023-02-16T03:45:31;0.60;77.90
10903;DHT22;5504;47.312;11.060;2023-02-16T03:47:59;0.40;77.50
10903;DHT22;5504;47.312;11.060;2023-02-16T03:50:25;0.30;78.70
10903;DHT22;5504;47.312;11.060;2023-02-16T03:52:52;0.40;78.90
10903;DHT22;5504;47.312;11.060;2023-02-16T03:55:18;0.60;78.40
10903;DHT22;5504;47.312;11.060;2023-02-16T03:57:43;0.60;77.60
10903;DHT22;5504;47.312;11.060;2023-02-16T04:00:10;0.40;77.10
10903;DHT22;5504;47.312;11.060;2023-02-16T04:02:36;0.50;77.70
10903;DHT22;5504;47.312;11.060;2023-02-16T04:05:02;0.50;77.60
10903;DHT22;5504;47.312;11.060;2023-02-16T04:07:27;0.50;78.00
10903;DHT22;5504;47.312;11.060;2023-02-16T04:09:53;0.60;78.20
10903;DHT22;5504;47.312;11.060;2023-02-16T04:12:19;0.80;77.30
10903;DHT22;5504;47.312;11.060;2023-02-16T04:15:11;0.90;76.70
10903;DHT22;5504;47.312;11.060;2023-02-16T04:17:37;0.80;76.30
10903;DHT22;5504;47.312;11.060;2023-02-16T04:20:03;0.70;76.50
10903;DHT22;5504;47.312;11.060;2023-02-16T04:22:29;0.50;77.10
10903;DHT22;5504;47.312;11.060;2023-02-16T04:24:55;0.20;78.10
10903;DHT22;5504;47.312;11.060;2023-02-16T04:27:21;0.10;78.90
10903;DHT22;5504;47.312;11.060;2023-02-16T04:29:46;0.20;79.40
10903;DHT22;5504;47.312;11.060;2023-02-16T04:32:12;0.20;79.00
10903;DHT22;5504;47.312;11.060;2023-02-16T04:34:38;0.20;79.00
10903;DHT22;5504;47.312;11.060;2023-02-16T04:37:03;0.40;79.10
10903;DHT22;5504;47.312;11.060;2023-02-16T04:39:30;0.40;78.60
10903;DHT22;5504;47.312;11.060;2023-02-16T04:41:56;0.40;78.40
10903;DHT22;5504;47.312;11.060;2023-02-16T04:44:21;0.50;78.20
10903;DHT22;5504;47.312;11.060;2023-02-16T04:46:47;0.70;77.60
10903;DHT22;5504;47.312;11.060;2023-02-16T04:49:13;0.50;77.20
10903;DHT22;5504;47.312;11.060;2023-02-16T04:51:38;0.10;78.40
10903;DHT22;5504;47.312;11.060;2023-02-16T04:54:05;0.00;79.30
10903;DHT22;5504;47.312;11.060;2023-02-16T04:56:30;0.00;79.50
10903;DHT22;5504;47.312;11.060;2023-02-16T04:58:56;0.20;79.90
10903;DHT22;5504;47.312;11.060;2023-02-16T05:01:24;0.30;79.70
10903;DHT22;5504;47.312;11.060;2023-02-16T05:03:50;0.30;79.20
10903;DHT22;5504;47.312;11.060;2023-02-16T05:06:16;0.40;79.20
10903;DHT22;5504;47.312;11.060;2023-02-16T05:08:44;0.60;78.90
10903;DHT22;5504;47.312;11.060;2023-02-16T05:11:10;0.80;78.10
10903;DHT22;5504;47.312;11.060;2023-02-16T05:13:58;0.70;77.30
10903;DHT22;5504;47.312;11.060;2023-02-16T05:16:43;0.50;77.60
10903;DHT22;5504;47.312;11.060;2023-02-16T05:19:10;0.60;78.30
10903;DHT22;5504;47.312;11.060;2023-02-16T05:21:36;0.70;78.10
10903;DHT22;5504;47.312;11.060;2023-02-16T05:24:04;0.40;78.00
10903;DHT22;5504;47.312;11.060;2023-02-16T05:26:32;0.30;79.30
10903;DHT22;5504;47.312;11.060;2023-02-16T05:28:57;0.50;79.40
10903;DHT22;5504;47.312;11.060;2023-02-16T05:31:25;0.40;79.00
10903;DHT22;5504;47.312;11.060;2023-02-16T05:33:51;0.20;79.50
10903;DHT22;5504;47.312;11.060;2023-02-16T05:36:18;0.30;79.90
10903;DHT22;5504;47.312;11.060;2023-02-16T05:38:44;0.40;79.70
10903;DHT22;5504;47.312;11.060;2023-02-16T05:41:10;0.40;79.50
10903;DHT22;5504;47.312;11.060;2023-02-16T05:43:37;0.10;79.80
10903;DHT22;5504;47.312;11.060;2023-02-16T05:46:07;0.20;80.30
10903;DHT22;5504;47.312;11.060;2023-02-16T05:48:32;0.40;79.70
10903;DHT22;5504;47.312;11.060;2023-02-16T05:50:58;0.60;79.30
10903;DHT22;5504;47.312;11.060;2023-02-16T05:53:24;0.80;79.10
10903;DHT22;5504;47.312;11.060;2023-02-16T05:55:49;0.90;77.60
10903;DHT22;5504;47.312;11.060;2023-02-16T05:58:16;0.80;77.20
10903;DHT22;5504;47.312;11.060;2023-02-16T06:00:41;0.50;77.70
10903;DHT22;5504;47.312;11.060;2023-02-16T06:03:07;0.50;78.90
10903;DHT22;5504;47.312;11.060;2023-02-16T06:05:33;0.60;78.60
10903;DHT22;5504;47.312;11.060;2023-02-16T06:07:59;0.80;78.20
10903;DHT22;5504;47.312;11.060;2023-02-16T06:10:25;0.50;78.30
10903;DHT22;5504;47.312;11.060;2023-02-16T06:12:51;0.50;79.10
10903;DHT22;5504;47.312;11.060;2023-02-16T06:15:17;0.60;79.00
10903;DHT22;5504;47.312;11.060;2023-02-16T06:17:43;0.40;79.00
10903;DHT22;5504;47.312;11.060;2023-02-16T06:20:09;0.40;79.80
10903;DHT22;5504;47.312;11.060;2023-02-16T06:22:35;0.40;80.20
10903;DHT22;5504;47.312;11.060;2023-02-16T06:25:01;0.40;80.20
10903;DHT22;5504;47.312;11.060;2023-02-16T06:27:27;0.50;80.20
10903;DHT22;5504;47.312;11.060;2023-02-16T06:29:53;0.70;79.60
10903;DHT22;5504;47.312;11.060;2023-02-16T06:32:19;0.80;78.60
10903;DHT22;5504;47.312;11.060;2023-02-16T06:34:45;0.80;78.90
10903;DHT22;5504;47.312;11.060;2023-02-16T06:37:10;0.90;78.70
10903;DHT22;5504;47.312;11.060;2023-02-16T06:39:36;1.00;78.20
10903;DHT22;5504;47.312;11.060;2023-02-16T06:42:02;1.20;77.40
10903;DHT22;5504;47.312;11.060;2023-02-16T06:44:27;1.20;76.90
10903;DHT22;5504;47.312;11.060;2023-02-16T06:46:53;1.20;77.30
10903;DHT22;5504;47.312;11.060;2023-02-16T06:49:19;0.90;77.20
10903;DHT22;5504;47.312;11.060;2023-02-16T06:51:46;0.90;78.50
10903;DHT22;5504;47.312;11.060;2023-02-16T06:54:12;1.10;78.40
10903;DHT22;5504;47.312;11.060;2023-02-16T06:56:38;1.40;77.60
10903;DHT22;5504;47.312;11.060;2023-02-16T06:59:05;1.50;77.10
10903;DHT22;5504;47.312;11.060;2023-02-16T07:01:31;1.40;76.70
10903;DHT22;5504;47.312;11.060;2023-02-16T07:03:57;0.90;78.10
10903;DHT22;5504;47.312;11.060;2023-02-16T07:06:26;1.40;79.30
10903;DHT22;5504;47.312;11.060;2023-02-16T07:08:52;1.80;78.40
10903;DHT22;5504;47.312;11.060;2023-02-16T07:11:18;2.10;77.90
10903;DHT22;5504;47.312;11.060;2023-02-16T07:13:45;2.40;76.90
10903;DHT22;5504;47.312;11.060;2023-02-16T07:16:11;2.70;76.20
10903;DHT22;5504;47.312;11.060;2023-02-16T07:18:37;2.70;74.60
10903;DHT22;5504;47.312;11.060;2023-02-16T07:21:04;2.50;73.90
10903;DHT22;5504;47.312;11.060;2023-02-16T07:23:31;2.30;75.20
10903;DHT22;5504;47.312;11.060;2023-02-16T07:25:57;2.50;75.60
10903;DHT22;5504;47.312;11.060;2023-02-16T07:28:23;2.80;75.70
10903;DHT22;5504;47.312;11.060;2023-02-16T07:30:48;2.90;74.60
10903;DHT22;5504;47.312;11.060;2023-02-16T07:33:15;3.10;74.30
10903;DHT22;5504;47.312;11.060;2023-02-16T07:35:42;3.10;74.70
10903;DHT22;5504;47.312;11.060;2023-02-16T07:38:08;2.80;74.90
10903;DHT22;5504;47.312;11.060;2023-02-16T07:40:35;3.00;75.00
10903;DHT22;5504;47.312;11.060;2023-02-16T07:43:03;3.20;74.60
10903;DHT22;5504;47.312;11.060;2023-02-16T07:45:29;3.40;74.40
10903;DHT22;5504;47.312;11.060;2023-02-16T07:47:57;3.80;74.20
10903;DHT22;5504;47.312;11.060;2023-02-16T07:50:23;4.20;73.40
10903;DHT22;5504;47.312;11.060;2023-02-16T07:52:49;4.50;72.00
10903;DHT22;5504;47.312;11.060;2023-02-16T07:55:14;4.60;72.00
10903;DHT22;5504;47.312;11.060;2023-02-16T07:57:40;4.80;71.40
10903;DHT22;5504;47.312;11.060;2023-02-16T08:00:06;4.70;69.60
10903;DHT22;5504;47.312;11.060;2023-02-16T08:02:33;5.00;70.10
10903;DHT22;5504;47.312;11.060;2023-02-16T08:04:59;5.20;69.80
10903;DHT22;5504;47.312;11.060;2023-02-16T08:07:25;5.40;68.40
10903;DHT22;5504;47.312;11.060;2023-02-16T08:09:52;5.20;67.10
10903;DHT22;5504;47.312;11.060;2023-02-16T08:12:18;4.70;67.40
10903;DHT22;5504;47.312;11.060;2023-02-16T08:14:44;4.60;69.00
10903;DHT22;5504;47.312;11.060;2023-02-16T08:17:13;4.50;69.60
10903;DHT22;5504;47.312;11.060;2023-02-16T08:19:39;4.40;69.80
10903;DHT22;5504;47.312;11.060;2023-02-16T08:22:05;4.40;70.20
10903;DHT22;5504;47.312;11.060;2023-02-16T08:24:32;4.40;70.50
10903;DHT22;5504;47.312;11.060;2023-02-16T08:26:58;4.50;69.50
10903;DHT22;5504;47.312;11.060;2023-02-16T08:29:24;4.70;69.60
10903;DHT22;5504;47.312;11.060;2023-02-16T08:31:51;4.20;69.90
10903;DHT22;5504;47.312;11.060;2023-02-16T08:34:18;4.30;70.50
10903;DHT22;5504;47.312;11.060;2023-02-16T08:36:46;4.70;70.60
10903;DHT22;5504;47.312;11.060;2023-02-16T08:39:18;5.00;69.40
10903;DHT22;5504;47.312;11.060;2023-02-16T08:41:46;5.10;69.70
10903;DHT22;5504;47.312;11.060;2023-02-16T08:44:12;5.30;69.90
10903;DHT22;5504;47.312;11.060;2023-02-16T08:46:41;5.40;68.00
10903;DHT22;5504;47.312;11.060;2023-02-16T08:49:09;5.30;67.80
10903;DHT22;5504;47.312;11.060;2023-02-16T08:51:41;4.50;69.70
10903;DHT22;5504;47.312;11.060;2023-02-16T08:54:07;4.60;70.50
10903;DHT22;5504;47.312;11.060;2023-02-16T08:56:36;5.30;71.00
10903;DHT22;5504;47.312;11.060;2023-02-16T08:59:02;6.00;70.20
10903;DHT22;5504;47.312;11.060;2023-02-16T09:01:28;6.50;68.10
10903;DHT22;5504;47.312;11.060;2023-02-16T09:03:54;6.90;67.60
10903;DHT22;5504;47.312;11.060;2023-02-16T09:06:21;7.30;64.50
10903;DHT22;5504;47.312;11.060;2023-02-16T09:08:55;7.80;63.60
10903;DHT22;5504;47.312;11.060;2023-02-16T09:11:21;8.20;63.30
10903;DHT22;5504;47.312;11.060;2023-02-16T09:13:48;8.00;59.80
10903;DHT22;5504;47.312;11.060;2023-02-16T09:16:20;8.80;59.70
10903;DHT22;5504;47.312;11.060;2023-02-16T09:18:47;9.60;58.90
10903;DHT22;5504;47.312;11.060;2023-02-16T09:21:16;10.50;58.60
10903;DHT22;5504;47.312;11.060;2023-02-16T09:23:44;10.90;57.00
10903;DHT22;5504;47.312;11.060;2023-02-16T09:26:17;11.20;55.20
10903;DHT22;5504;47.312;11.060;2023-02-16T09:28:44;10.50;55.00
10903;DHT22;5504;47.312;11.060;2023-02-16T09:31:22;11.00;55.00
10903;DHT22;5504;47.312;11.060;2023-02-16T09:33:54;10.40;54.80
10903;DHT22;5504;47.312;11.060;2023-02-16T09:36:20;10.60;55.00
10903;DHT22;5504;47.312;11.060;2023-02-16T09:38:46;11.10;53.80
10903;DHT22;5504;47.312;11.060;2023-02-16T09:46:41;11.50;52.90
10903;DHT22;5504;47.312;11.060;2023-02-16T09:54:54;11.50;53.70
10903;DHT22;5504;47.312;11.060;2023-02-16T10:00:04;11.20;51.40
10903;DHT22;5504;47.312;11.060;2023-02-16T10:10:12;11.40;50.90
10903;DHT22;5504;47.312;11.060;2023-02-16T10:12:47;11.70;51.70
10903;DHT22;5504;47.312;11.060;2023-02-16T10:15:18;11.50;51.30
10903;DHT22;5504;47.312;11.060;2023-02-16T10:18:23;11.30;50.00
10903;DHT22;5504;47.312;11.060;2023-02-16T10:20:43;11.90;50.20
10903;DHT22;5504;47.312;11.060;2023-02-16T10:23:36;13.30;49.50
10903;DHT22;5504;47.312;11.060;2023-02-16T10:26:18;13.50;46.20
10903;DHT22;5504;47.312;11.060;2023-02-16T10:28:51;13.70;47.90
10903;DHT22;5504;47.312;11.060;2023-02-16T10:31:40;13.20;46.50
10903;DHT22;5504;47.312;11.060;2023-02-16T10:34:46;12.80;47.10
10903;DHT22;5504;47.312;11.060;2023-02-16T10:42:45;12.70;47.90
10903;DHT22;5504;47.312;11.060;2023-02-16T10:45:30;12.30;47.80
10903;DHT22;5504;47.312;11.060;2023-02-16T10:47:57;11.80;47.90
10903;DHT22;5504;47.312;11.060;2023-02-16T10:50:38;12.50;48.10
10903;DHT22;5504;47.312;11.060;2023-02-16T10:53:20;12.20;47.40
10903;DHT22;5504;47.312;11.060;2023-02-16T10:55:48;13.20;47.20
10903;DHT22;5504;47.312;11.060;2023-02-16T10:58:25;13.50;45.90
10903;DHT22;5504;47.312;11.060;2023-02-16T11:03:30;14.90;45.80
10903;DHT22;5504;47.312;11.060;2023-02-16T11:09:00;16.30;41.90
10903;DHT22;5504;47.312;11.060;2023-02-16T11:11:35;17.10;41.70
10903;DHT22;5504;47.312;11.060;2023-02-16T11:14:04;17.60;40.30
10903;DHT22;5504;47.312;11.060;2023-02-16T11:16:31;17.70;40.20
10903;DHT22;5504;47.312;11.060;2023-02-16T11:19:06;17.50;40.60
10903;DHT22;5504;47.312;11.060;2023-02-16T11:21:54;17.00;41.70
10903;DHT22;5504;47.312;11.060;2023-02-16T11:24:29;16.00;41.40
10903;DHT22;5504;47.312;11.060;2023-02-16T11:27:02;16.70;42.10
10903;DHT22;5504;47.312;11.060;2023-02-16T11:29:28;15.40;42.40
10903;DHT22;5504;47.312;11.060;2023-02-16T11:31:55;15.30;42.30
10903;DHT22;5504;47.312;11.060;2023-02-16T11:39:45;14.00;42.30
10903;DHT22;5504;47.312;11.060;2023-02-16T11:42:28;12.60;44.40
10903;DHT22;5504;47.312;11.060;2023-02-16T11:44:57;12.90;45.70
10903;DHT22;5504;47.312;11.060;2023-02-16T11:47:40;13.50;46.40
10903;DHT22;5504;47.312;11.060;2023-02-16T11:50:27;14.50;46.20
10903;DHT22;5504;47.312;11.060;2023-02-16T11:52:56;15.20;43.50
10903;DHT22;5504;47.312;11.060;2023-02-16T11:55:31;15.40;43.20
10903;DHT22;5504;47.312;11.060;2023-02-16T11:58:20;14.90;42.30
10903;DHT22;5504;47.312;11.060;2023-02-16T12:09:54;13.50;44.50
10903;DHT22;5504;47.312;11.060;2023-02-16T12:12:08;14.10;46.00
10903;DHT22;5504;47.312;11.060;2023-02-16T12:19:45;15.50;44.30
10903;DHT22;5504;47.312;11.060;2023-02-16T12:22:23;15.50;43.90
10903;DHT22;5504;47.312;11.060;2023-02-16T12:25:18;15.10;40.70
10903;DHT22;5504;47.312;11.060;2023-02-16T12:28:17;15.10;43.40
10903;DHT22;5504;47.312;11.060;2023-02-16T12:44:36;15.20;41.70
10903;DHT22;5504;47.312;11.060;2023-02-16T12:47:05;16.10;43.10
10903;DHT22;5504;47.312;11.060;2023-02-16T12:49:53;14.60;41.60
10903;DHT22;5504;47.312;11.060;2023-02-16T12:52:37;14.20;42.00
10903;DHT22;5504;47.312;11.060;2023-02-16T12:55:36;15.20;41.60
10903;DHT22;5504;47.312;11.060;2023-02-16T13:11:51;15.00;40.10
10903;DHT22;5504;47.312;11.060;2023-02-16T13:14:39;15.30;41.20
10903;DHT22;5504;47.312;11.060;2023-02-16T13:17:20;16.60;40.20
10903;DHT22;5504;47.312;11.060;2023-02-16T13:19:50;17.00;40.30
10903;DHT22;5504;47.312;11.060;2023-02-16T13:22:46;17.00;40.60
10903;DHT22;5504;47.312;11.060;2023-02-16T13:25:39;16.60;39.30
10903;DHT22;5504;47.312;11.060;2023-02-16T13:34:23;17.60;37.50
10903;DHT22;5504;47.312;11.060;2023-02-16T13:36:59;17.80;38.50
10903;DHT22;5504;47.312;11.060;2023-02-16T13:44:49;16.30;40.10
10903;DHT22;5504;47.312;11.060;2023-02-16T13:47:21;15.70;38.70
10903;DHT22;5504;47.312;11.060;2023-02-16T13:49:55;15.90;40.20
10903;DHT22;5504;47.312;11.060;2023-02-16T13:52:32;16.30;38.10
10903;DHT22;5504;47.312;11.060;2023-02-16T13:55:00;16.50;37.80
10903;DHT22;5504;47.312;11.060;2023-02-16T14:00:39;16.40;39.90
10903;DHT22;5504;47.312;11.060;2023-02-16T14:05:41;16.40;39.90
10903;DHT22;5504;47.312;11.060;2023-02-16T14:18:53;15.00;38.00
10903;DHT22;5504;47.312;11.060;2023-02-16T14:24:03;15.10;41.20
10903;DHT22;5504;47.312;11.060;2023-02-16T14:26:31;16.00;42.80
10903;DHT22;5504;47.312;11.060;2023-02-16T14:29:21;16.30;41.50
10903;DHT22;5504;47.312;11.060;2023-02-16T14:34:45;16.80;40.00
10903;DHT22;5504;47.312;11.060;2023-02-16T14:39:46;16.90;40.10
10903;DHT22;5504;47.312;11.060;2023-02-16T14:42:19;16.70;39.80
10903;DHT22;5504;47.312;11.060;2023-02-16T14:47:51;17.10;39.90
10903;DHT22;5504;47.312;11.060;2023-02-16T14:59:16;16.20;41.20
10903;DHT22;5504;47.312;11.060;2023-02-16T15:01:39;16.80;40.60
10903;DHT22;5504;47.312;11.060;2023-02-16T15:04:05;17.10;40.30
10903;DHT22;5504;47.312;11.060;2023-02-16T15:06:49;17.20;40.20
10903;DHT22;5504;47.312;11.060;2023-02-16T15:09:18;17.20;40.30
10903;DHT22;5504;47.312;11.060;2023-02-16T15:12:04;17.00;40.10
10903;DHT22;5504;47.312;11.060;2023-02-16T15:14:54;16.80;39.40
10903;DHT22;5504;47.312;11.060;2023-02-16T15:17:45;16.50;40.30
10903;DHT22;5504;47.312;11.060;2023-02-16T15:20:35;16.50;40.80
10903;DHT22;5504;47.312;11.060;2023-02-16T15:23:23;16.30;40.90
10903;DHT22;5504;47.312;11.060;2023-02-16T15:25:59;16.20;42.00
10903;DHT22;5504;47.312;11.060;2023-02-16T15:28:31;16.20;40.80
10903;DHT22;5504;47.312;11.060;2023-02-16T15:31:01;15.90;41.00
10903;DHT22;5504;47.312;11.060;2023-02-16T15:35:59;15.50;41.40
10903;DHT22;5504;47.312;11.060;2023-02-16T15:38:28;15.40;42.10
10903;DHT22;5504;47.312;11.060;2023-02-16T15:41:11;15.30;42.90
10903;DHT22;5504;47.312;11.060;2023-02-16T15:43:46;15.20;43.10
10903;DHT22;5504;47.312;11.060;2023-02-16T15:46:30;14.90;43.60
10903;DHT22;5504;47.312;11.060;2023-02-16T15:48:57;14.80;44.20
10903;DHT22;5504;47.312;11.060;2023-02-16T15:51:30;14.40;44.00
10903;DHT22;5504;47.312;11.060;2023-02-16T15:54:01;14.00;45.40
10903;DHT22;5504;47.312;11.060;2023-02-16T15:56:42;13.60;45.40
10903;DHT22;5504;47.312;11.060;2023-02-16T16:04:49;12.80;47.10
10903;DHT22;5504;47.312;11.060;2023-02-16T16:07:24;12.40;48.10
10903;DHT22;5504;47.312;11.060;2023-02-16T16:09:50;12.00;48.80
10903;DHT22;5504;47.312;11.060;2023-02-16T16:12:18;11.70;49.50
10903;DHT22;5504;47.312;11.060;2023-02-16T16:14:50;11.40;50.00
10903;DHT22;5504;47.312;11.060;2023-02-16T16:17:20;11.10;50.70
10903;DHT22;5504;47.312;11.060;2023-02-16T16:19:46;10.90;51.00
10903;DHT22;5504;47.312;11.060;2023-02-16T16:22:34;10.70;51.50
10903;DHT22;5504;47.312;11.060;2023-02-16T16:25:01;10.50;52.00
10903;DHT22;5504;47.312;11.060;2023-02-16T16:27:35;10.30;52.70
10903;DHT22;5504;47.312;11.060;2023-02-16T16:32:44;9.50;53.80
10903;DHT22;5504;47.312;11.060;2023-02-16T16:38:02;9.50;53.80
10903;DHT22;5504;47.312;11.060;2023-02-16T16:40:35;9.10;54.50
10903;DHT22;5504;47.312;11.060;2023-02-16T16:45:40;8.80;55.60
10903;DHT22;5504;47.312;11.060;2023-02-16T16:53:39;8.00;57.10
10903;DHT22;5504;47.312;11.060;2023-02-16T16:56:11;7.80;57.50
10903;DHT22;5504;47.312;11.060;2023-02-16T16:58:37;7.70;57.80
10903;DHT22;5504;47.312;11.060;2023-02-16T17:01:02;7.80;58.50
10903;DHT22;5504;47.312;11.060;2023-02-16T17:03:28;7.80;57.70
10903;DHT22;5504;47.312;11.060;2023-02-16T17:05:54;7.80;57.10
10903;DHT22;5504;47.312;11.060;2023-02-16T17:08:22;7.80;57.20
10903;DHT22;5504;47.312;11.060;2023-02-16T17:10:47;7.30;57.50
10903;DHT22;5504;47.312;11.060;2023-02-16T17:13:15;7.20;59.10
10903;DHT22;5504;47.312;11.060;2023-02-16T17:18:56;7.20;58.80
10903;DHT22;5504;47.312;11.060;2023-02-16T17:21:22;7.00;59.30
10903;DHT22;5504;47.312;11.060;2023-02-16T17:23:48;7.10;59.20
10903;DHT22;5504;47.312;11.060;2023-02-16T17:26:13;7.30;58.90
10903;DHT22;5504;47.312;11.060;2023-02-16T17:28:39;7.40;58.40
10903;DHT22;5504;47.312;11.060;2023-02-16T17:31:07;7.00;59.00
10903;DHT22;5504;47.312;11.060;2023-02-16T17:33:33;6.80;59.40
10903;DHT22;5504;47.312;11.060;2023-02-16T17:36:01;6.90;59.20
10903;DHT22;5504;47.312;11.060;2023-02-16T17:38:27;7.00;59.30
10903;DHT22;5504;47.312;11.060;2023-02-16T17:40:54;6.80;59.50
10903;DHT22;5504;47.312;11.060;2023-02-16T17:43:21;6.80;59.50
10903;DHT22;5504;47.312;11.060;2023-02-16T17:45:48;6.60;59.80
10903;DHT22;5504;47.312;11.060;2023-02-16T17:48:22;6.60;59.90
10903;DHT22;5504;47.312;11.060;2023-02-16T17:50:49;6.50;60.20
10903;DHT22;5504;47.312;11.060;2023-02-16T17:53:20;6.40;60.00
10903;DHT22;5504;47.312;11.060;2023-02-16T17:55:48;6.50;60.00
10903;DHT22;5504;47.312;11.060;2023-02-16T17:58:16;6.70;59.40
10903;DHT22;5504;47.312;11.060;2023-02-16T18:00:43;6.60;59.70
10903;DHT22;5504;47.312;11.060;2023-02-16T18:03:09;6.40;60.50
10903;DHT22;5504;47.312;11.060;2023-02-16T18:05:35;6.20;60.80
10903;DHT22;5504;47.312;11.060;2023-02-16T18:08:02;6.20;61.30
10903;DHT22;5504;47.312;11.060;2023-02-16T18:13:03;6.30;61.30
10903;DHT22;5504;47.312;11.060;2023-02-16T18:15:29;6.20;60.40
10903;DHT22;5504;47.312;11.060;2023-02-16T18:17:55;6.20;60.60
10903;DHT22;5504;47.312;11.060;2023-02-16T18:20:21;6.30;60.20
10903;DHT22;5504;47.312;11.060;2023-02-16T18:22:47;6.20;60.70
10903;DHT22;5504;47.312;11.060;2023-02-16T18:25:13;6.10;61.20
10903;DHT22;5504;47.312;11.060;2023-02-16T18:27:38;5.90;62.30
10903;DHT22;5504;47.312;11.060;2023-02-16T18:30:05;5.80;62.30
10903;DHT22;5504;47.312;11.060;2023-02-16T18:32:31;5.60;62.70
10903;DHT22;5504;47.312;11.060;2023-02-16T18:34:57;5.70;63.20
10903;DHT22;5504;47.312;11.060;2023-02-16T18:37:23;5.70;63.00
10903;DHT22;5504;47.312;11.060;2023-02-16T18:39:49;5.60;63.70
10903;DHT22;5504;47.312;11.060;2023-02-16T18:42:15;5.70;62.60
10903;DHT22;5504;47.312;11.060;2023-02-16T18:44:41;5.80;62.30
10903;DHT22;5504;47.312;11.060;2023-02-16T18:47:07;5.80;62.60
10903;DHT22;5504;47.312;11.060;2023-02-16T18:49:33;5.70;62.40
10903;DHT22;5504;47.312;11.060;2023-02-16T18:51:59;5.40;63.20
10903;DHT22;5504;47.312;11.060;2023-02-16T18:54:25;5.20;63.70
10903;DHT22;5504;47.312;11.060;2023-02-16T18:56:51;5.30;64.20
10903;DHT22;5504;47.312;11.060;2023-02-16T18:59:17;5.60;63.00
10903;DHT22;5504;47.312;11.060;2023-02-16T19:01:42;5.40;63.50
10903;DHT22;5504;47.312;11.060;2023-02-16T19:04:08;5.30;64.30
10903;DHT22;5504;47.312;11.060;2023-02-16T19:06:36;5.30;64.50
10903;DHT22;5504;47.312;11.060;2023-02-16T19:09:02;5.20;64.90
10903;DHT22;5504;47.312;11.060;2023-02-16T19:11:28;5.20;65.90
10903;DHT22;5504;47.312;11.060;2023-02-16T19:13:55;5.30;64.90